sensor_id;sensor_type;location;lat;lon;timestamp;P1;P2;P0
54553;PMS5003;40450;55.848;-3.572;2024-02-16T00:01:00;1;1;
54553;PMS5003;40450;55.848;-3.572;2024-02-16T00:03:28;3;2;
54553;PMS5003;40450;55.848;-3.572;2024-02-16T00:05:50;3;1;
54553;PMS5003;40450;55.848;-3.572;2024-02-16T00:08:20;1;1;
54553;PMS5003;40450;55.848;-3.572;2024-02-16T00:10:47;4;3;
54553;PMS5003;40450;55.848;-3.572;2024-02-16T00:13:12;3;3;
54553;PMS5003;40450;55.848;-3.572;2024-02-16T00:15:30;4;3;
54553;PMS5003;40450;55.848;-3.572;2024-02-16T00:17:56;2;2;
54553;PMS5003;40450;55.848;-3.572;2024-02-16T00:20:21;2;2;
54553;PMS5003;40450;55.848;-3.572;2024-02-16T00:22:46;2;1;
54553;PMS5003;40450;55.848;-3.572;2024-02-16T00:25:11;1;1;
54553;PMS5003;40450;55.848;-3.572;2024-02-16T00:27:36;3;0;
54553;PMS5003;40450;55.848;-3.572;2024-02-16T00:30:02;1;1;
54553;PMS5003;40450;55.848;-3.572;2024-02-16T00:32:28;1;1;
54553;PMS5003;40450;55.848;-3.572;2024-02-16T00:34:52;2;2;
54553;PMS5003;40450;55.848;-3.572;2024-02-16T00:37:17;1;1;
54553;PMS5003;40450;55.848;-3.572;2024-02-16T00:39:42;1;0;
54553;PMS5003;40450;55.848;-3.572;2024-02-16T00:42:07;1;1;
54553;PMS5003;40450;55.848;-3.572;2024-02-16T00:44:36;1;1;
54553;PMS5003;40450;55.848;-3.572;2024-02-16T00:46:57;1;1;
54553;PMS5003;40450;55.848;-3.572;2024-02-16T00:49:23;0;0;
54553;PMS5003;40450;55.848;-3.572;2024-02-16T00:51:48;1;1;
54553;PMS5003;40450;55.848;-3.572;2024-02-16T00:54:13;2;1;
54553;PMS5003;40450;55.848;-3.572;2024-02-16T00:56:43;1;1;
54553;PMS5003;40450;55.848;-3.572;2024-02-16T00:59:03;1;1;
54553;PMS5003;40450;55.848;-3.572;2024-02-16T01:01:28;1;0;
54553;PMS5003;40450;55.848;-3.572;2024-02-16T01:03:54;2;2;
54553;PMS5003;40450;55.848;-3.572;2024-02-16T01:06:19;1;1;
54553;PMS5003;40450;55.848;-3.572;2024-02-16T01:08:47;1;1;
54553;PMS5003;40450;55.848;-3.572;2024-02-16T01:11:09;2;2;
54553;PMS5003;40450;55.848;-3.572;2024-02-16T01:13:34;0;0;
54553;PMS5003;40450;55.848;-3.572;2024-02-16T01:15:59;2;1;
54553;PMS5003;40450;55.848;-3.572;2024-02-16T01:18:25;2;2;
54553;PMS5003;40450;55.848;-3.572;2024-02-16T01:20:50;1;1;
54553;PMS5003;40450;55.848;-3.572;2024-02-16T01:23:15;0;0;
54553;PMS5003;40450;55.848;-3.572;2024-02-16T01:25:40;0;0;
54553;PMS5003;40450;55.848;-3.572;2024-02-16T01:28:05;2;1;
54553;PMS5003;40450;55.848;-3.572;2024-02-16T01:30:30;2;0;
54553;PMS5003;40450;55.848;-3.572;2024-02-16T01:32:56;2;2;
54553;PMS5003;40450;55.848;-3.572;2024-02-16T01:35:21;1;1;
54553;PMS5003;40450;55.848;-3.572;2024-02-16T01:37:47;2;1;
54553;PMS5003;40450;55.848;-3.572;2024-02-16T01:40:11;2;1;
54553;PMS5003;40450;55.848;-3.572;2024-02-16T01:42:37;2;2;
54553;PMS5003;40450;55.848;-3.572;2024-02-16T01:45:02;2;1;
54553;PMS5003;40450;55.848;-3.572;2024-02-16T01:47:27;1;1;
54553;PMS5003;40450;55.848;-3.572;2024-02-16T01:49:52;0;0;
54553;PMS5003;40450;55.848;-3.572;2024-02-16T01:52:17;4;1;
54553;PMS5003;40450;55.848;-3.572;2024-02-16T01:54:42;1;1;
54553;PMS5003;40450;55.848;-3.572;2024-02-16T01:57:08;4;4;
54553;PMS5003;40450;55.848;-3.572;2024-02-16T01:59:33;1;1;
54553;PMS5003;40450;55.848;-3.572;2024-02-16T02:01:59;0;0;
54553;PMS5003;40450;55.848;-3.572;2024-02-16T02:04:24;0;0;
54553;PMS5003;40450;55.848;-3.572;2024-02-16T02:06:49;1;1;
54553;PMS5003;40450;55.848;-3.572;2024-02-16T02:09:14;1;0;
54553;PMS5003;40450;55.848;-3.572;2024-02-16T02:11:39;0;0;
54553;PMS5003;40450;55.848;-3.572;2024-02-16T02:14:04;2;0;
54553;PMS5003;40450;55.848;-3.572;2024-02-16T02:16:30;0;0;
54553;PMS5003;40450;55.848;-3.572;2024-02-16T02:18:55;0;0;
54553;PMS5003;40450;55.848;-3.572;2024-02-16T02:21:20;0;0;
54553;PMS5003;40450;55.848;-3.572;2024-02-16T02:23:45;0;0;
54553;PMS5003;40450;55.848;-3.572;2024-02-16T02:26:10;0;0;
54553;PMS5003;40450;55.848;-3.572;2024-02-16T02:28:35;0;0;
54553;PMS5003;40450;55.848;-3.572;2024-02-16T02:31:01;1;1;
54553;PMS5003;40450;55.848;-3.572;2024-02-16T02:33:26;2;2;
54553;PMS5003;40450;55.848;-3.572;2024-02-16T02:35:51;3;1;
54553;PMS5003;40450;55.848;-3.572;2024-02-16T02:38:16;0;0;
54553;PMS5003;40450;55.848;-3.572;2024-02-16T02:40:41;1;1;
54553;PMS5003;40450;55.848;-3.572;2024-02-16T02:43:07;0;0;
54553;PMS5003;40450;55.848;-3.572;2024-02-16T02:45:32;0;0;
54553;PMS5003;40450;55.848;-3.572;2024-02-16T02:47:57;0;0;
54553;PMS5003;40450;55.848;-3.572;2024-02-16T02:50:22;1;0;
54553;PMS5003;40450;55.848;-3.572;2024-02-16T02:52:47;2;2;
54553;PMS5003;40450;55.848;-3.572;2024-02-16T02:55:13;0;0;
54553;PMS5003;40450;55.848;-3.572;2024-02-16T02:57:38;3;2;
54553;PMS5003;40450;55.848;-3.572;2024-02-16T03:00:04;2;2;
54553;PMS5003;40450;55.848;-3.572;2024-02-16T03:02:28;3;2;
54553;PMS5003;40450;55.848;-3.572;2024-02-16T03:04:53;0;0;
54553;PMS5003;40450;55.848;-3.572;2024-02-16T03:07:18;1;1;
54553;PMS5003;40450;55.848;-3.572;2024-02-16T03:09:44;2;2;
54553;PMS5003;40450;55.848;-3.572;2024-02-16T03:12:09;1;1;
54553;PMS5003;40450;55.848;-3.572;2024-02-16T03:14:34;2;1;
54553;PMS5003;40450;55.848;-3.572;2024-02-16T03:16:59;1;1;
54553;PMS5003;40450;55.848;-3.572;2024-02-16T03:19:26;2;2;
54553;PMS5003;40450;55.848;-3.572;2024-02-16T03:21:49;0;0;
54553;PMS5003;40450;55.848;-3.572;2024-02-16T03:24:14;0;0;
54553;PMS5003;40450;55.848;-3.572;2024-02-16T03:26:40;1;1;
54553;PMS5003;40450;55.848;-3.572;2024-02-16T03:29:05;4;2;
54553;PMS5003;40450;55.848;-3.572;2024-02-16T03:31:30;1;1;
54553;PMS5003;40450;55.848;-3.572;2024-02-16T03:33:55;2;2;
54553;PMS5003;40450;55.848;-3.572;2024-02-16T03:36:20;3;3;
54553;PMS5003;40450;55.848;-3.572;2024-02-16T03:38:46;3;2;
54553;PMS5003;40450;55.848;-3.572;2024-02-16T03:41:12;2;2;
54553;PMS5003;40450;55.848;-3.572;2024-02-16T03:43:39;4;4;
54553;PMS5003;40450;55.848;-3.572;2024-02-16T03:46:01;5;4;
54553;PMS5003;40450;55.848;-3.572;2024-02-16T03:48:27;4;4;
54553;PMS5003;40450;55.848;-3.572;2024-02-16T03:50:52;3;3;
54553;PMS5003;40450;55.848;-3.572;2024-02-16T03:53:17;5;4;
54553;PMS5003;40450;55.848;-3.572;2024-02-16T03:55:42;3;3;
54553;PMS5003;40450;55.848;-3.572;2024-02-16T03:58:07;5;3;
54553;PMS5003;40450;55.848;-3.572;2024-02-16T04:00:32;3;3;
54553;PMS5003;40450;55.848;-3.572;2024-02-16T04:02:57;1;1;
54553;PMS5003;40450;55.848;-3.572;2024-02-16T04:05:23;5;3;
54553;PMS5003;40450;55.848;-3.572;2024-02-16T04:07:51;3;3;
54553;PMS5003;40450;55.848;-3.572;2024-02-16T04:10:13;3;3;
54553;PMS5003;40450;55.848;-3.572;2024-02-16T04:12:38;3;3;
54553;PMS5003;40450;55.848;-3.572;2024-02-16T04:15:04;5;3;
54553;PMS5003;40450;55.848;-3.572;2024-02-16T04:17:28;2;2;
54553;PMS5003;40450;55.848;-3.572;2024-02-16T04:19:53;1;1;
54553;PMS5003;40450;55.848;-3.572;2024-02-16T04:22:19;4;4;
54553;PMS5003;40450;55.848;-3.572;2024-02-16T04:24:44;2;2;
54553;PMS5003;40450;55.848;-3.572;2024-02-16T04:27:09;2;2;
54553;PMS5003;40450;55.848;-3.572;2024-02-16T04:29:34;3;3;
54553;PMS5003;40450;55.848;-3.572;2024-02-16T04:32:01;3;3;
54553;PMS5003;40450;55.848;-3.572;2024-02-16T04:34:24;5;3;
54553;PMS5003;40450;55.848;-3.572;2024-02-16T04:36:50;4;2;
54553;PMS5003;40450;55.848;-3.572;2024-02-16T04:39:15;3;3;
54553;PMS5003;40450;55.848;-3.572;2024-02-16T04:41:40;6;4;
54553;PMS5003;40450;55.848;-3.572;2024-02-16T04:44:05;3;1;
54553;PMS5003;40450;55.848;-3.572;2024-02-16T04:46:31;3;2;
54553;PMS5003;40450;55.848;-3.572;2024-02-16T04:48:56;2;2;
54553;PMS5003;40450;55.848;-3.572;2024-02-16T04:51:22;1;1;
54553;PMS5003;40450;55.848;-3.572;2024-02-16T04:53:47;3;2;
54553;PMS5003;40450;55.848;-3.572;2024-02-16T04:56:12;2;2;
54553;PMS5003;40450;55.848;-3.572;2024-02-16T04:58:39;3;3;
54553;PMS5003;40450;55.848;-3.572;2024-02-16T05:01:02;2;2;
54553;PMS5003;40450;55.848;-3.572;2024-02-16T05:03:28;3;2;
54553;PMS5003;40450;55.848;-3.572;2024-02-16T05:05:53;4;2;
54553;PMS5003;40450;55.848;-3.572;2024-02-16T05:08:18;4;3;
54553;PMS5003;40450;55.848;-3.572;2024-02-16T05:10:43;2;2;
54553;PMS5003;40450;55.848;-3.572;2024-02-16T05:13:09;5;3;
54553;PMS5003;40450;55.848;-3.572;2024-02-16T05:15:34;3;2;
54553;PMS5003;40450;55.848;-3.572;2024-02-16T05:17:59;2;1;
54553;PMS5003;40450;55.848;-3.572;2024-02-16T05:20:24;2;1;
54553;PMS5003;40450;55.848;-3.572;2024-02-16T05:22:49;2;2;
54553;PMS5003;40450;55.848;-3.572;2024-02-16T05:25:15;1;1;
54553;PMS5003;40450;55.848;-3.572;2024-02-16T05:27:40;1;1;
54553;PMS5003;40450;55.848;-3.572;2024-02-16T05:30:05;3;1;
54553;PMS5003;40450;55.848;-3.572;2024-02-16T05:32:30;1;1;
54553;PMS5003;40450;55.848;-3.572;2024-02-16T05:34:55;1;1;
54553;PMS5003;40450;55.848;-3.572;2024-02-16T05:37:20;2;0;
54553;PMS5003;40450;55.848;-3.572;2024-02-16T05:39:46;0;0;
54553;PMS5003;40450;55.848;-3.572;2024-02-16T05:42:11;1;1;
54553;PMS5003;40450;55.848;-3.572;2024-02-16T05:44:36;1;1;
54553;PMS5003;40450;55.848;-3.572;2024-02-16T05:47:01;2;0;
54553;PMS5003;40450;55.848;-3.572;2024-02-16T05:49:32;1;1;
54553;PMS5003;40450;55.848;-3.572;2024-02-16T05:51:52;2;0;
54553;PMS5003;40450;55.848;-3.572;2024-02-16T05:54:17;1;1;
54553;PMS5003;40450;55.848;-3.572;2024-02-16T05:56:42;0;0;
54553;PMS5003;40450;55.848;-3.572;2024-02-16T05:59:07;0;0;
54553;PMS5003;40450;55.848;-3.572;2024-02-16T06:01:32;1;1;
54553;PMS5003;40450;55.848;-3.572;2024-02-16T06:03:57;2;1;
54553;PMS5003;40450;55.848;-3.572;2024-02-16T06:06:23;0;0;
54553;PMS5003;40450;55.848;-3.572;2024-02-16T06:08:48;0;0;
54553;PMS5003;40450;55.848;-3.572;2024-02-16T06:11:13;0;0;
54553;PMS5003;40450;55.848;-3.572;2024-02-16T06:13:42;1;1;
54553;PMS5003;40450;55.848;-3.572;2024-02-16T06:16:04;0;0;
54553;PMS5003;40450;55.848;-3.572;2024-02-16T06:18:28;0;0;
54553;PMS5003;40450;55.848;-3.572;2024-02-16T06:20:54;0;0;
54553;PMS5003;40450;55.848;-3.572;2024-02-16T06:23:19;0;0;
54553;PMS5003;40450;55.848;-3.572;2024-02-16T06:25:48;0;0;
54553;PMS5003;40450;55.848;-3.572;2024-02-16T06:28:09;0;0;
54553;PMS5003;40450;55.848;-3.572;2024-02-16T06:30:34;0;0;
54553;PMS5003;40450;55.848;-3.572;2024-02-16T06:32:59;0;0;
54553;PMS5003;40450;55.848;-3.572;2024-02-16T06:35:25;0;0;
54553;PMS5003;40450;55.848;-3.572;2024-02-16T06:37:50;0;0;
54553;PMS5003;40450;55.848;-3.572;2024-02-16T06:40:15;0;0;
54553;PMS5003;40450;55.848;-3.572;2024-02-16T06:42:40;0;0;
54553;PMS5003;40450;55.848;-3.572;2024-02-16T06:45:06;0;0;
54553;PMS5003;40450;55.848;-3.572;2024-02-16T06:47:30;0;0;
54553;PMS5003;40450;55.848;-3.572;2024-02-16T06:49:59;2;0;
54553;PMS5003;40450;55.848;-3.572;2024-02-16T06:52:21;0;0;
54553;PMS5003;40450;55.848;-3.572;2024-02-16T06:54:46;1;1;
54553;PMS5003;40450;55.848;-3.572;2024-02-16T06:57:11;3;2;
54553;PMS5003;40450;55.848;-3.572;2024-02-16T06:59:36;3;2;
54553;PMS5003;40450;55.848;-3.572;2024-02-16T07:02:02;2;2;
54553;PMS5003;40450;55.848;-3.572;2024-02-16T07:04:27;1;1;
54553;PMS5003;40450;55.848;-3.572;2024-02-16T07:06:52;0;0;
54553;PMS5003;40450;55.848;-3.572;2024-02-16T07:09:17;1;1;
54553;PMS5003;40450;55.848;-3.572;2024-02-16T07:11:42;0;0;
54553;PMS5003;40450;55.848;-3.572;2024-02-16T07:14:08;0;0;
54553;PMS5003;40450;55.848;-3.572;2024-02-16T07:16:33;0;0;
54553;PMS5003;40450;55.848;-3.572;2024-02-16T07:18:58;0;0;
54553;PMS5003;40450;55.848;-3.572;2024-02-16T07:21:24;0;0;
54553;PMS5003;40450;55.848;-3.572;2024-02-16T07:23:48;1;1;
54553;PMS5003;40450;55.848;-3.572;2024-02-16T07:26:13;2;0;
54553;PMS5003;40450;55.848;-3.572;2024-02-16T07:28:39;0;0;
54553;PMS5003;40450;55.848;-3.572;2024-02-16T07:31:05;0;0;
54553;PMS5003;40450;55.848;-3.572;2024-02-16T07:33:29;0;0;
54553;PMS5003;40450;55.848;-3.572;2024-02-16T07:35:54;0;0;
54553;PMS5003;40450;55.848;-3.572;2024-02-16T07:38:19;0;0;
54553;PMS5003;40450;55.848;-3.572;2024-02-16T07:40:45;0;0;
54553;PMS5003;40450;55.848;-3.572;2024-02-16T07:43:10;0;0;
54553;PMS5003;40450;55.848;-3.572;2024-02-16T07:45:35;1;1;
54553;PMS5003;40450;55.848;-3.572;2024-02-16T07:48:00;1;1;
54553;PMS5003;40450;55.848;-3.572;2024-02-16T07:50:28;0;0;
54553;PMS5003;40450;55.848;-3.572;2024-02-16T07:52:51;0;0;
54553;PMS5003;40450;55.848;-3.572;2024-02-16T07:55:16;0;0;
54553;PMS5003;40450;55.848;-3.572;2024-02-16T07:57:41;2;2;
54553;PMS5003;40450;55.848;-3.572;2024-02-16T08:00:06;2;1;
54553;PMS5003;40450;55.848;-3.572;2024-02-16T08:02:33;2;2;
54553;PMS5003;40450;55.848;-3.572;2024-02-16T08:04:57;3;3;
54553;PMS5003;40450;55.848;-3.572;2024-02-16T08:07:22;1;1;
54553;PMS5003;40450;55.848;-3.572;2024-02-16T08:09:47;1;1;
54553;PMS5003;40450;55.848;-3.572;2024-02-16T08:12:12;4;2;
54553;PMS5003;40450;55.848;-3.572;2024-02-16T08:14:39;2;2;
54553;PMS5003;40450;55.848;-3.572;2024-02-16T08:17:02;1;1;
54553;PMS5003;40450;55.848;-3.572;2024-02-16T08:19:31;3;1;
54553;PMS5003;40450;55.848;-3.572;2024-02-16T08:21:53;2;1;
54553;PMS5003;40450;55.848;-3.572;2024-02-16T08:24:18;1;1;
54553;PMS5003;40450;55.848;-3.572;2024-02-16T08:26:43;1;1;
54553;PMS5003;40450;55.848;-3.572;2024-02-16T08:29:08;2;2;
54553;PMS5003;40450;55.848;-3.572;2024-02-16T08:31:34;11;10;
54553;PMS5003;40450;55.848;-3.572;2024-02-16T08:33:59;4;2;
54553;PMS5003;40450;55.848;-3.572;2024-02-16T08:36:24;1;1;
54553;PMS5003;40450;55.848;-3.572;2024-02-16T08:38:54;0;0;
54553;PMS5003;40450;55.848;-3.572;2024-02-16T08:41:15;3;3;
54553;PMS5003;40450;55.848;-3.572;2024-02-16T08:43:40;2;2;
54553;PMS5003;40450;55.848;-3.572;2024-02-16T08:46:09;3;3;
54553;PMS5003;40450;55.848;-3.572;2024-02-16T08:48:35;2;1;
54553;PMS5003;40450;55.848;-3.572;2024-02-16T08:50:59;0;0;
54553;PMS5003;40450;55.848;-3.572;2024-02-16T08:53:21;1;1;
54553;PMS5003;40450;55.848;-3.572;2024-02-16T08:55:46;1;1;
54553;PMS5003;40450;55.848;-3.572;2024-02-16T08:58:16;2;1;
54553;PMS5003;40450;55.848;-3.572;2024-02-16T09:03:05;1;1;
54553;PMS5003;40450;55.848;-3.572;2024-02-16T09:05:27;0;0;
54553;PMS5003;40450;55.848;-3.572;2024-02-16T09:07:52;4;2;
54553;PMS5003;40450;55.848;-3.572;2024-02-16T09:10:17;2;1;
54553;PMS5003;40450;55.848;-3.572;2024-02-16T09:12:43;3;3;
54553;PMS5003;40450;55.848;-3.572;2024-02-16T09:15:08;5;5;
54553;PMS5003;40450;55.848;-3.572;2024-02-16T09:17:33;3;3;
54553;PMS5003;40450;55.848;-3.572;2024-02-16T09:19:58;4;3;
54553;PMS5003;40450;55.848;-3.572;2024-02-16T09:22:23;1;1;
54553;PMS5003;40450;55.848;-3.572;2024-02-16T09:24:49;2;2;
54553;PMS5003;40450;55.848;-3.572;2024-02-16T09:27:14;2;1;
54553;PMS5003;40450;55.848;-3.572;2024-02-16T09:29:39;4;3;
54553;PMS5003;40450;55.848;-3.572;2024-02-16T09:32:05;3;3;
54553;PMS5003;40450;55.848;-3.572;2024-02-16T09:34:30;3;3;
54553;PMS5003;40450;55.848;-3.572;2024-02-16T09:36:55;3;3;
54553;PMS5003;40450;55.848;-3.572;2024-02-16T09:39:25;3;3;
54553;PMS5003;40450;55.848;-3.572;2024-02-16T09:41:48;4;2;
54553;PMS5003;40450;55.848;-3.572;2024-02-16T09:44:12;7;4;
54553;PMS5003;40450;55.848;-3.572;2024-02-16T09:46:42;3;3;
54553;PMS5003;40450;55.848;-3.572;2024-02-16T09:49:02;2;2;
54553;PMS5003;40450;55.848;-3.572;2024-02-16T09:51:28;6;5;
54553;PMS5003;40450;55.848;-3.572;2024-02-16T09:53:53;7;7;
54553;PMS5003;40450;55.848;-3.572;2024-02-16T09:56:18;6;5;
54553;PMS5003;40450;55.848;-3.572;2024-02-16T09:58:43;4;4;
54553;PMS5003;40450;55.848;-3.572;2024-02-16T10:01:16;4;4;
54553;PMS5003;40450;55.848;-3.572;2024-02-16T10:03:33;5;4;
54553;PMS5003;40450;55.848;-3.572;2024-02-16T10:06:04;5;5;
54553;PMS5003;40450;55.848;-3.572;2024-02-16T10:08:24;5;5;
54553;PMS5003;40450;55.848;-3.572;2024-02-16T10:10:49;5;5;
54553;PMS5003;40450;55.848;-3.572;2024-02-16T10:13:15;4;4;
54553;PMS5003;40450;55.848;-3.572;2024-02-16T10:15:40;5;3;
54553;PMS5003;40450;55.848;-3.572;2024-02-16T10:18:06;9;6;
54553;PMS5003;40450;55.848;-3.572;2024-02-16T10:20:31;4;4;
54553;PMS5003;40450;55.848;-3.572;2024-02-16T10:23:03;12;8;
54553;PMS5003;40450;55.848;-3.572;2024-02-16T10:25:22;5;5;
54553;PMS5003;40450;55.848;-3.572;2024-02-16T10:27:47;8;8;
54553;PMS5003;40450;55.848;-3.572;2024-02-16T10:30:13;6;6;
54553;PMS5003;40450;55.848;-3.572;2024-02-16T10:32:38;9;8;
54553;PMS5003;40450;55.848;-3.572;2024-02-16T10:35:04;9;7;
54553;PMS5003;40450;55.848;-3.572;2024-02-16T10:37:30;10;7;
54553;PMS5003;40450;55.848;-3.572;2024-02-16T10:39:55;6;6;
54553;PMS5003;40450;55.848;-3.572;2024-02-16T10:42:21;6;6;
54553;PMS5003;40450;55.848;-3.572;2024-02-16T10:44:46;10;10;
54553;PMS5003;40450;55.848;-3.572;2024-02-16T10:47:11;7;7;
54553;PMS5003;40450;55.848;-3.572;2024-02-16T10:49:37;12;10;
54553;PMS5003;40450;55.848;-3.572;2024-02-16T10:52:02;15;10;
54553;PMS5003;40450;55.848;-3.572;2024-02-16T10:54:28;9;6;
54553;PMS5003;40450;55.848;-3.572;2024-02-16T10:56:53;13;8;
54553;PMS5003;40450;55.848;-3.572;2024-02-16T10:59:18;10;7;
54553;PMS5003;40450;55.848;-3.572;2024-02-16T11:01:44;6;6;
54553;PMS5003;40450;55.848;-3.572;2024-02-16T11:04:11;9;9;
54553;PMS5003;40450;55.848;-3.572;2024-02-16T11:06:44;11;9;
54553;PMS5003;40450;55.848;-3.572;2024-02-16T11:09:01;14;12;
54553;PMS5003;40450;55.848;-3.572;2024-02-16T11:11:25;8;8;
54553;PMS5003;40450;55.848;-3.572;2024-02-16T11:13:53;10;6;
54553;PMS5003;40450;55.848;-3.572;2024-02-16T11:16:17;13;11;
54553;PMS5003;40450;55.848;-3.572;2024-02-16T11:18:42;8;7;
54553;PMS5003;40450;55.848;-3.572;2024-02-16T11:21:07;8;8;
54553;PMS5003;40450;55.848;-3.572;2024-02-16T11:23:34;12;8;
54553;PMS5003;40450;55.848;-3.572;2024-02-16T11:26:00;8;7;
54553;PMS5003;40450;55.848;-3.572;2024-02-16T11:28:23;8;6;
54553;PMS5003;40450;55.848;-3.572;2024-02-16T11:30:49;8;7;
54553;PMS5003;40450;55.848;-3.572;2024-02-16T11:33:14;9;8;
54553;PMS5003;40450;55.848;-3.572;2024-02-16T11:35:39;7;7;
54553;PMS5003;40450;55.848;-3.572;2024-02-16T11:38:05;9;9;
54553;PMS5003;40450;55.848;-3.572;2024-02-16T11:40:31;11;9;
54553;PMS5003;40450;55.848;-3.572;2024-02-16T11:42:59;7;7;
54553;PMS5003;40450;55.848;-3.572;2024-02-16T11:45:21;10;8;
54553;PMS5003;40450;55.848;-3.572;2024-02-16T11:47:46;8;5;
54553;PMS5003;40450;55.848;-3.572;2024-02-16T11:50:12;6;6;
54553;PMS5003;40450;55.848;-3.572;2024-02-16T11:52:38;8;7;
54553;PMS5003;40450;55.848;-3.572;2024-02-16T11:55:03;6;6;
54553;PMS5003;40450;55.848;-3.572;2024-02-16T11:57:28;10;7;
54553;PMS5003;40450;55.848;-3.572;2024-02-16T11:59:53;7;7;
54553;PMS5003;40450;55.848;-3.572;2024-02-16T12:02:19;7;6;
54553;PMS5003;40450;55.848;-3.572;2024-02-16T12:04:45;7;6;
54553;PMS5003;40450;55.848;-3.572;2024-02-16T12:07:12;8;7;
54553;PMS5003;40450;55.848;-3.572;2024-02-16T12:09:35;6;6;
54553;PMS5003;40450;55.848;-3.572;2024-02-16T12:12:00;7;4;
54553;PMS5003;40450;55.848;-3.572;2024-02-16T12:14:25;7;6;
54553;PMS5003;40450;55.848;-3.572;2024-02-16T12:16:51;7;6;
54553;PMS5003;40450;55.848;-3.572;2024-02-16T12:19:23;4;4;
54553;PMS5003;40450;55.848;-3.572;2024-02-16T12:24:06;4;4;
54553;PMS5003;40450;55.848;-3.572;2024-02-16T12:26:31;6;5;
54553;PMS5003;40450;55.848;-3.572;2024-02-16T12:28:56;5;4;
54553;PMS5003;40450;55.848;-3.572;2024-02-16T12:31:23;5;5;
54553;PMS5003;40450;55.848;-3.572;2024-02-16T12:33:47;6;5;
54553;PMS5003;40450;55.848;-3.572;2024-02-16T12:36:12;8;6;
54553;PMS5003;40450;55.848;-3.572;2024-02-16T12:41:03;3;3;
54553;PMS5003;40450;55.848;-3.572;2024-02-16T12:43:28;4;4;
54553;PMS5003;40450;55.848;-3.572;2024-02-16T12:45:53;7;5;
54553;PMS5003;40450;55.848;-3.572;2024-02-16T12:48:18;5;5;
54553;PMS5003;40450;55.848;-3.572;2024-02-16T12:50:44;7;6;
54553;PMS5003;40450;55.848;-3.572;2024-02-16T12:53:14;7;4;
54553;PMS5003;40450;55.848;-3.572;2024-02-16T12:55:35;5;5;
54553;PMS5003;40450;55.848;-3.572;2024-02-16T12:58:01;8;6;
54553;PMS5003;40450;55.848;-3.572;2024-02-16T13:00:26;4;4;
54553;PMS5003;40450;55.848;-3.572;2024-02-16T13:02:52;8;7;
54553;PMS5003;40450;55.848;-3.572;2024-02-16T13:07:42;6;6;
54553;PMS5003;40450;55.848;-3.572;2024-02-16T13:10:07;9;6;
54553;PMS5003;40450;55.848;-3.572;2024-02-16T13:12:32;6;6;
54553;PMS5003;40450;55.848;-3.572;2024-02-16T13:15:05;11;8;
54553;PMS5003;40450;55.848;-3.572;2024-02-16T13:17:29;7;6;
54553;PMS5003;40450;55.848;-3.572;2024-02-16T13:19:54;4;4;
54553;PMS5003;40450;55.848;-3.572;2024-02-16T13:22:16;6;4;
54553;PMS5003;40450;55.848;-3.572;2024-02-16T13:24:40;5;3;
54553;PMS5003;40450;55.848;-3.572;2024-02-16T13:27:05;5;4;
54553;PMS5003;40450;55.848;-3.572;2024-02-16T13:29:35;5;5;
54553;PMS5003;40450;55.848;-3.572;2024-02-16T13:31:55;2;2;
54553;PMS5003;40450;55.848;-3.572;2024-02-16T13:34:26;7;7;
54553;PMS5003;40450;55.848;-3.572;2024-02-16T13:36:56;4;4;
54553;PMS5003;40450;55.848;-3.572;2024-02-16T13:39:11;5;5;
54553;PMS5003;40450;55.848;-3.572;2024-02-16T13:41:39;7;5;
54553;PMS5003;40450;55.848;-3.572;2024-02-16T13:44:01;5;5;
54553;PMS5003;40450;55.848;-3.572;2024-02-16T13:46:34;6;5;
54553;PMS5003;40450;55.848;-3.572;2024-02-16T13:48:52;7;6;
54553;PMS5003;40450;55.848;-3.572;2024-02-16T13:51:17;6;3;
54553;PMS5003;40450;55.848;-3.572;2024-02-16T13:53:47;2;2;
54553;PMS5003;40450;55.848;-3.572;2024-02-16T13:56:07;3;2;
54553;PMS5003;40450;55.848;-3.572;2024-02-16T13:58:32;3;3;
54553;PMS5003;40450;55.848;-3.572;2024-02-16T14:00:58;3;3;
54553;PMS5003;40450;55.848;-3.572;2024-02-16T14:03:22;3;2;
54553;PMS5003;40450;55.848;-3.572;2024-02-16T14:05:48;7;5;
54553;PMS5003;40450;55.848;-3.572;2024-02-16T14:08:13;5;3;
54553;PMS5003;40450;55.848;-3.572;2024-02-16T14:10:39;4;2;
54553;PMS5003;40450;55.848;-3.572;2024-02-16T14:13:04;4;4;
54553;PMS5003;40450;55.848;-3.572;2024-02-16T14:15:29;4;3;
54553;PMS5003;40450;55.848;-3.572;2024-02-16T14:17:54;4;4;
54553;PMS5003;40450;55.848;-3.572;2024-02-16T14:20:19;3;3;
54553;PMS5003;40450;55.848;-3.572;2024-02-16T14:22:44;5;4;
54553;PMS5003;40450;55.848;-3.572;2024-02-16T14:25:10;4;4;
54553;PMS5003;40450;55.848;-3.572;2024-02-16T14:27:34;4;4;
54553;PMS5003;40450;55.848;-3.572;2024-02-16T14:30:03;4;3;
54553;PMS5003;40450;55.848;-3.572;2024-02-16T14:32:25;3;3;
54553;PMS5003;40450;55.848;-3.572;2024-02-16T14:34:51;7;4;
54553;PMS5003;40450;55.848;-3.572;2024-02-16T14:37:16;3;3;
54553;PMS5003;40450;55.848;-3.572;2024-02-16T14:39:41;8;7;
54553;PMS5003;40450;55.848;-3.572;2024-02-16T14:42:06;3;3;
54553;PMS5003;40450;55.848;-3.572;2024-02-16T14:44:31;4;4;
54553;PMS5003;40450;55.848;-3.572;2024-02-16T14:46:56;3;3;
54553;PMS5003;40450;55.848;-3.572;2024-02-16T14:49:22;3;2;
54553;PMS5003;40450;55.848;-3.572;2024-02-16T14:51:47;4;4;
54553;PMS5003;40450;55.848;-3.572;2024-02-16T14:54:13;5;3;
54553;PMS5003;40450;55.848;-3.572;2024-02-16T14:56:37;7;6;
54553;PMS5003;40450;55.848;-3.572;2024-02-16T14:59:03;8;7;
54553;PMS5003;40450;55.848;-3.572;2024-02-16T15:01:28;6;6;
54553;PMS5003;40450;55.848;-3.572;2024-02-16T15:03:53;5;4;
54553;PMS5003;40450;55.848;-3.572;2024-02-16T15:06:18;5;5;
54553;PMS5003;40450;55.848;-3.572;2024-02-16T15:08:43;4;4;
54553;PMS5003;40450;55.848;-3.572;2024-02-16T15:11:13;5;5;
54553;PMS5003;40450;55.848;-3.572;2024-02-16T15:13:34;4;4;
54553;PMS5003;40450;55.848;-3.572;2024-02-16T15:15:59;5;4;
54553;PMS5003;40450;55.848;-3.572;2024-02-16T15:18:29;5;4;
54553;PMS5003;40450;55.848;-3.572;2024-02-16T15:20:54;5;4;
54553;PMS5003;40450;55.848;-3.572;2024-02-16T15:23:14;2;2;
54553;PMS5003;40450;55.848;-3.572;2024-02-16T15:25:40;5;4;
54553;PMS5003;40450;55.848;-3.572;2024-02-16T15:28:05;4;4;
54553;PMS5003;40450;55.848;-3.572;2024-02-16T15:30:30;6;5;
54553;PMS5003;40450;55.848;-3.572;2024-02-16T15:32:55;6;5;
54553;PMS5003;40450;55.848;-3.572;2024-02-16T15:35:20;6;6;
54553;PMS5003;40450;55.848;-3.572;2024-02-16T15:37:45;8;5;
54553;PMS5003;40450;55.848;-3.572;2024-02-16T15:40:11;7;7;
54553;PMS5003;40450;55.848;-3.572;2024-02-16T15:42:38;6;6;
54553;PMS5003;40450;55.848;-3.572;2024-02-16T15:45:01;4;4;
54553;PMS5003;40450;55.848;-3.572;2024-02-16T15:47:26;3;3;
54553;PMS5003;40450;55.848;-3.572;2024-02-16T15:49:51;5;3;
54553;PMS5003;40450;55.848;-3.572;2024-02-16T15:52:16;12;8;
54553;PMS5003;40450;55.848;-3.572;2024-02-16T15:54:42;7;5;
54553;PMS5003;40450;55.848;-3.572;2024-02-16T15:57:07;8;8;
54553;PMS5003;40450;55.848;-3.572;2024-02-16T15:59:32;4;4;
54553;PMS5003;40450;55.848;-3.572;2024-02-16T16:01:57;5;5;
54553;PMS5003;40450;55.848;-3.572;2024-02-16T16:04:22;2;2;
54553;PMS5003;40450;55.848;-3.572;2024-02-16T16:06:48;1;1;
54553;PMS5003;40450;55.848;-3.572;2024-02-16T16:09:13;0;0;
54553;PMS5003;40450;55.848;-3.572;2024-02-16T16:11:38;4;4;
54553;PMS5003;40450;55.848;-3.572;2024-02-16T16:14:03;6;6;
54553;PMS5003;40450;55.848;-3.572;2024-02-16T16:16:28;2;2;
54553;PMS5003;40450;55.848;-3.572;2024-02-16T16:18:54;5;4;
54553;PMS5003;40450;55.848;-3.572;2024-02-16T16:21:26;3;3;
54553;PMS5003;40450;55.848;-3.572;2024-02-16T16:23:44;2;2;
54553;PMS5003;40450;55.848;-3.572;2024-02-16T16:26:14;2;2;
54553;PMS5003;40450;55.848;-3.572;2024-02-16T16:28:39;4;4;